• Join FlightAware (Why Join?)
  • Login
  • US Flag 
04:16AM EDT


 

Airport Tracker/Info


-or-


 

Live Flight TrackerFlight Track Log ✈ EJA951 ✈ 01-Nov-2013 ✈ KLAS - KLIT

Flight Track Log - Related Links

Times and Time Zones

All times are in EDT time to prevent confusion due to time zone crossing. See the EJA951 flight status page for this flight to view local times or setup timezone preferences in your user account.

Time Position Orientation Groundspeed Altitude Reporting Facility
EDT Latitude Longitude Course Direction KTS MPH feet Rate Location/Type
07:30AM 36.0686 -115.1733 216° Southwest 180 207 3,200  Level Los Angeles Center
07:30AM 36.0594 -115.1817 216° Southwest 208 239 3,600 3,120 Climbing Los Angeles Center
07:32AM 36.0031 -115.2267 213° Southwest 256 295 7,000 2,640 Climbing Los Angeles Center
07:33AM 35.9403 -115.2292 182° South 277 319 9,300 1,920 Climbing Los Angeles Center
07:34AM 35.9425 -115.1378 88° East 293 337 10,900 1,380 Climbing Los Angeles Center
07:35AM 35.9428 -115.0172 90° East 344 396 12,100 1,380 Climbing Los Angeles Center
07:36AM 35.9408 -114.8911 91° East 365 420 13,700 1,740 Climbing Los Angeles Center
07:37AM 35.9389 -114.7589 91° East 380 437 15,700 1,680 Climbing Los Angeles Center
07:38AM 35.9369 -114.6278 91° East 382 440 17,100 1,500 Climbing Los Angeles Center
07:39AM 35.9342 -114.4656 91° East 393 452 18,800 1,560 Climbing Los Angeles Center
07:40AM 35.9311 -114.3283 92° East 398 458 20,300 1,380 Climbing Los Angeles Center
07:41AM 35.9289 -114.1856 91° East 414 476 21,700 1,440 Climbing Los Angeles Center
07:42AM 35.9256 -114.0414 92° East 420 483 23,300 1,500 Climbing Los Angeles Center
07:43AM 35.9214 -113.8933 92° East 430 495 24,800 1,560 Climbing Los Angeles Center
07:44AM 35.9225 -113.7428 89° East 437 503 26,500 1,260 Climbing Los Angeles Center
07:45AM 35.9269 -113.5914 88° East 440 506 27,400 660 Climbing Los Angeles Center
07:46AM 35.9314 -113.4592 88° East 458 527 27,900 600 Climbing Los Angeles Center
07:47AM 35.9367 -113.2989 88° East 466 536 28,700 600 Climbing Los Angeles Center
07:48AM 35.9414 -113.1342 88° East 476 548 29,200 600 Climbing Los Angeles Center
07:49AM 35.9450 -112.9656 88° East 487 560 30,000 780 Climbing Los Angeles Center
07:50AM 35.9514 -112.7672 88° East 496 571 30,800 900 Climbing Los Angeles Center
07:51AM 35.9542 -112.6117 89° East 501 577 31,800 1,140 Climbing Los Angeles Center
07:52AM 35.9578 -112.4414 88° East 500 575 33,100 1,260 Climbing Los Angeles Center
07:53AM 35.9614 -112.2722 88° East 497 572 34,400 1,320 Climbing Los Angeles Center
07:54AM 35.9633 -112.1100 89° East 499 574 35,800 1,500 Climbing Los Angeles Center
07:55AM 35.9678 -111.9331 88° East 496 571 37,400 1,800 Climbing Los Angeles Center
07:56AM 35.9700 -111.7683 89° East 486 559 39,400 1,680 Climbing Los Angeles Center
07:57AM 35.9714 -111.6092 89° East 472 543 40,900 900 Climbing Los Angeles Center
07:57AM 35.9750 -111.4817 88° East 471 542 41,000  Climbing Denver Center
07:58AM 35.9767 -111.3122 89° East 487 560 41,000  Level Denver Center
07:59AM 35.9786 -111.1433 89° East 494 568 41,000  Level Denver Center
08:00AM 35.9797 -110.9767 89° East 490 564 41,000  Level Denver Center
08:01AM 35.9825 -110.8094 89° East 489 563 41,000  Level Denver Center
08:02AM 35.9833 -110.6411 90° East 491 565 41,000  Level Denver Center
08:03AM 35.9844 -110.4722 89° East 493 567 41,000  Level Denver Center
08:04AM 35.9847 -110.3028 90° East 494 568 41,000  Level Denver Center
08:05AM 35.9847 -110.1122 90° East 495 570 41,000  Level Denver Center
08:06AM 35.9858 -109.9492 89° East 496 571 41,000  Level Denver Center
08:07AM 35.9858 -109.8119 90° East 497 572 41,000  Level Albuquerque Center
08:08AM 35.9842 -109.6475 91° East 500 575 41,000  Level Albuquerque Center
08:09AM 35.9842 -109.4581 90° East 498 573 41,000  Level Albuquerque Center
08:10AM 35.9825 -109.2678 91° East 498 573 41,000  Level Denver Center
08:11AM 35.9828 -109.1394 90° East 501 577 41,000  Level Albuquerque Center
08:12AM 35.9825 -108.9650 90° East 507 583 41,000  Level Albuquerque Center
08:13AM 35.9797 -108.7928 91° East 505 581 41,000  Level Albuquerque Center
08:14AM 35.9792 -108.6194 90° East 505 581 41,000  Level Albuquerque Center
08:15AM 35.9769 -108.4211 91° East 505 581 41,000  Level Albuquerque Center
08:16AM 35.9747 -108.2539 91° East 507 583 41,000  Level Albuquerque Center
08:17AM 35.9717 -108.0881 91° East 507 583 41,000  Level Albuquerque Center
08:18AM 35.9689 -107.8944 91° East 506 582 41,000  Level Albuquerque Center
08:19AM 35.9650 -107.7272 92° East 507 583 41,000  Level Albuquerque Center
08:20AM 35.9622 -107.5614 91° East 507 583 41,000  Level Albuquerque Center
08:21AM 35.9592 -107.3942 91° East 508 585 41,000  Level Albuquerque Center
08:22AM 35.9553 -107.2008 91° East 506 582 41,000  Level Albuquerque Center
08:23AM 35.9522 -107.0347 91° East 507 583 41,000  Level Albuquerque Center
08:24AM 35.9478 -106.8686 92° East 507 583 41,000  Level Albuquerque Center
08:25AM 35.9439 -106.6739 91° East 508 585 41,000  Level Albuquerque Center
08:26AM 35.9389 -106.5086 92° East 509 586 41,000  Level Albuquerque Center
08:27AM 35.9342 -106.3289 92° East 516 594 41,000  Level Albuquerque Center
08:28AM 35.9286 -106.1517 92° East 514 592 41,000  Level Albuquerque Center
08:29AM 35.9233 -105.9731 92° East 513 590 41,000  Level Albuquerque Center
08:30AM 35.9172 -105.7950 92° East 513 590 41,000  Level Albuquerque Center
08:31AM 35.9106 -105.6192 93° East 511 588 41,000  Level Albuquerque Center
08:32AM 35.9061 -105.4519 92° East 508 585 41,000  Level Albuquerque Center
08:33AM 35.8994 -105.2761 93° East 507 583 41,000  Level Albuquerque Center
08:34AM 35.8917 -105.0989 93° East 511 588 41,000  Level Albuquerque Center
08:35AM 35.8847 -104.9231 93° East 510 587 41,000  Level Albuquerque Center
08:36AM 35.8769 -104.7456 93° East 512 589 41,000  Level Albuquerque Center
08:37AM 35.8689 -104.5681 93° East 512 589 41,000  Level Albuquerque Center
08:38AM 35.8611 -104.3936 93° East 508 585 41,000  Level Albuquerque Center
08:39AM 35.8531 -104.2169 93° East 507 583 41,000  Level Albuquerque Center
08:40AM 35.8444 -104.0406 93° East 508 585 41,000  Level Albuquerque Center
08:41AM 35.8356 -103.8628 93° East 511 588 41,000  Level Albuquerque Center
08:42AM 35.8272 -103.6844 93° East 513 590 41,000  Level Albuquerque Center
08:43AM 35.8175 -103.5072 94° East 512 589 41,000  Level Albuquerque Center
08:45AM 35.8083 -103.3317 94° East 510 587 41,000  Level Albuquerque Center
08:46AM 35.7986 -103.1536 94° East 512 589 41,000  Level Albuquerque Center
08:47AM 35.7886 -102.9761 94° East 514 592 41,000  Level Albuquerque Center
08:48AM 35.7783 -102.8208 95° East 514 592 41,000  Level Albuquerque Center
08:49AM 35.7683 -102.6439 94° East 517 595 41,000  Level Albuquerque Center
08:50AM 35.7578 -102.4675 94° East 517 595 41,000  Level Albuquerque Center
08:51AM 35.7458 -102.2911 95° East 517 595 41,000  Level Albuquerque Center
08:52AM 35.7358 -102.1147 94° East 517 595 41,000  Level Albuquerque Center
08:53AM 35.7244 -101.9367 94° East 518 596 41,000  Level Albuquerque Center
08:54AM 35.7122 -101.7569 95° East 522 601 41,000  Level Albuquerque Center
08:55AM 35.7000 -101.5772 95° East 522 601 41,000  Level Albuquerque Center
08:56AM 35.6875 -101.3958 95° East 527 606 41,000  Level Albuquerque Center
08:57AM 35.6750 -101.2150 95° East 527 606 41,000  Level Albuquerque Center
08:58AM 35.6611 -101.0353 95° East 527 606 41,000  Level Albuquerque Center
08:59AM 35.6481 -100.8553 95° East 528 608 41,000  Level Albuquerque Center
09:00AM 35.6336 -100.6750 96° East 529 609 41,000  Level Albuquerque Center
09:01AM 35.6178 -100.4669 95° East 530 610 41,000  Level Albuquerque Center
09:02AM 35.6031 -100.2869 96° East 530 610 41,000  Level Albuquerque Center
09:03AM 35.5878 -100.1064 96° East 532 612 41,000  Level Albuquerque Center
09:04AM 35.5739 -99.9272 95° East 530 610 41,000  Level Albuquerque Center
09:05AM 35.5586 -99.7469 96° East 531 611 41,000  Level Albuquerque Center
09:06AM 35.5433 -99.5678 96° East 531 611 41,000  Level Albuquerque Center
09:07AM 35.5292 -99.3892 96° East 530 610 41,000  Level Albuquerque Center
09:08AM 35.5136 -99.2117 96° East 529 609 41,000  Level Albuquerque Center
09:09AM 35.4969 -99.0336 97° East 528 608 41,000  Level Albuquerque Center
09:10AM 35.4806 -98.8556 96° East 528 608 41,000  Level Albuquerque Center
09:11AM 35.4644 -98.6781 96° East 527 606 41,000  Level Albuquerque Center
09:12AM 35.4417 -98.4456 97° East 520 598 41,000  Level Fort Worth Center
09:13AM 35.4242 -98.2644 97° East 515 593 41,000  Level Fort Worth Center
09:14AM 35.4064 -98.0886 97° East 526 605 41,000  Level Fort Worth Center
09:15AM 35.3886 -97.9100 97° East 526 605 41,000  Level Fort Worth Center
09:16AM 35.3703 -97.7319 97° East 521 600 41,000  Level Fort Worth Center
09:17AM 35.3497 -97.5586 98° East 521 600 41,000  Level Fort Worth Center
09:18AM 35.3375 -97.3475 94° East 545 627 41,000  Level Fort Worth Center
09:19AM 35.3100 -97.1669 101° East 537 618 41,000  Level Fort Worth Center
09:20AM 35.2931 -96.9939 97° East 537 618 41,000  Level Fort Worth Center
09:21AM 35.2733 -96.8133 98° East 532 612 41,000  Level Fort Worth Center
09:22AM 35.2536 -96.6356 98° East 532 612 41,000  Level Fort Worth Center
09:23AM 35.2336 -96.4578 98° East 532 612 41,000  Level Fort Worth Center
09:24AM 35.2133 -96.2753 98° East 532 612 41,000  Level Fort Worth Center
09:25AM 35.1928 -96.0950 98° East 537 618 41,000  Level Fort Worth Center
09:26AM 35.1719 -95.9150 98° East 537 618 41,000  Level Fort Worth Center
09:27AM 35.1556 -95.7606 97° East 524 603 41,000  Level Fort Worth Center
09:28AM 35.1344 -95.5833 98° East 524 603 41,000  Level Fort Worth Center
09:29AM 35.1128 -95.4033 98° East 524 603 41,000  Level Fort Worth Center
09:31AM 35.0561 -94.9536 99° East 511 588 41,000 -180 Level Memphis Center
09:32AM 35.0314 -94.7772 100° East 521 600 40,400 -1,140 Descending Memphis Center
09:33AM 35.0122 -94.6039 98° East 545 627 38,800 -1,860 Descending Memphis Center
09:34AM 34.9875 -94.4125 99° East 565 650 36,800 -2,040 Descending Memphis Center
09:35AM 34.9642 -94.2239 99° East 565 650 34,800 -2,040 Descending Memphis Center
09:36AM 34.9386 -94.0353 99° East 565 650 32,800 -2,040 Descending Memphis Center
09:37AM 34.9147 -93.8494 99° East 565 650 30,800 -2,160 Descending Memphis Center
09:38AM 34.8906 -93.6636 99° East 565 650 28,500 -3,000 Descending Memphis Center
09:39AM 34.8603 -93.4625 100° East 558 642 24,800 -3,420 Descending Memphis Center
09:40AM 34.8375 -93.2869 99° East 543 625 21,700 -3,180 Descending Memphis Center
09:41AM 34.8142 -93.1219 100° East 525 604 18,600 -2,880 Descending Memphis Center
09:42AM 34.7942 -92.9744 99° East 481 554 16,100 -2,520 Descending Memphis Center
09:43AM 34.7903 -92.9694 133° Southeast 435 501 16,000 -180 Descending Memphis Center
09:43AM 34.7811 -92.9058 100° East 390 449 16,000 -780 Level Memphis Center
09:43AM 34.7761 -92.8475 96° East 426 490 15,300 -2,100 Descending Memphis Center
09:44AM 34.7647 -92.7814 102° East 348 400 13,900 -2,280 Descending Memphis Center
09:44AM 34.7575 -92.7281 99° East 380 437 13,100 -1,680 Descending Memphis Center
09:45AM 34.7481 -92.6747 102° East 350 403 12,400 -1,680 Descending Memphis Center
09:45AM 34.7533 -92.6169 84° East 351 404 11,400 -2,160 Descending Memphis Center
09:46AM 34.7606 -92.5589 81° East 308 354 10,000 -2,400 Descending Memphis Center
09:46AM 34.7697 -92.5161 75° East 312 359 9,000 -2,820 Descending Memphis Center
09:47AM 34.7769 -92.4633 81° East 290 334 7,200 -3,000 Descending Memphis Center
09:47AM 34.7817 -92.4228 82° East 293 337 6,000 -2,580 Descending Memphis Center
09:48AM 34.7931 -92.3725 75° East 255 293 4,600 -1,620 Descending Memphis Center
09:48AM 34.7997 -92.3425 75° East 268 308 4,400 -1,260 Descending Memphis Center
09:49AM 34.7939 -92.3094 102° East 198 228 3,500 -1,800 Descending Memphis Center
09:49AM 34.7967 -92.2742 85° East 227 261 2,600 -1,920 Descending Memphis Center
09:50AM 34.7844 -92.2511 123° Southeast 169 194 1,600 -1,740 Descending Memphis Center
09:50AM 34.7681 -92.2381 147° Southeast 143 165 900 -1,200 Descending Memphis Center
09:51AM 34.7450 -92.2400 184° South 124 143 400 -420 Descending Memphis Center
09:51AM 34.7475 -92.2072 85° East 135 155 500 180 Climbing Memphis Center
09:58AM 34.7294 -92.2248 125° Southeast  Level Estimated